sensor_id;sensor_type;location;lat;lon;timestamp;temperature;humidity
43673;DHT22;41723;49.326;8.430;2022-08-11T00:00:42;24.30;58.50
43673;DHT22;41723;49.326;8.430;2022-08-11T00:03:10;24.30;58.50
43673;DHT22;41723;49.326;8.430;2022-08-11T00:05:51;24.20;58.50
43673;DHT22;41723;49.326;8.430;2022-08-11T00:08:21;24.20;58.60
43673;DHT22;41723;49.326;8.430;2022-08-11T00:10:55;24.20;58.80
43673;DHT22;41723;49.326;8.430;2022-08-11T00:13:21;24.20;59.10
43673;DHT22;41723;49.326;8.430;2022-08-11T00:15:47;24.20;58.90
43673;DHT22;41723;49.326;8.430;2022-08-11T00:18:13;24.20;59.00
43673;DHT22;41723;49.326;8.430;2022-08-11T00:20:40;24.20;59.00
43673;DHT22;41723;49.326;8.430;2022-08-11T00:23:09;24.20;58.70
43673;DHT22;41723;49.326;8.430;2022-08-11T00:25:41;24.10;59.10
43673;DHT22;41723;49.326;8.430;2022-08-11T00:28:50;24.20;59.00
43673;DHT22;41723;49.326;8.430;2022-08-11T00:30:58;24.20;59.00
43673;DHT22;41723;49.326;8.430;2022-08-11T00:33:31;24.10;59.10
43673;DHT22;41723;49.326;8.430;2022-08-11T00:35:57;24.10;59.10
43673;DHT22;41723;49.326;8.430;2022-08-11T00:38:25;24.10;59.40
43673;DHT22;41723;49.326;8.430;2022-08-11T00:51:51;23.90;59.60
43673;DHT22;41723;49.326;8.430;2022-08-11T00:59:34;23.90;59.80
43673;DHT22;41723;49.326;8.430;2022-08-11T01:02:12;23.90;60.50
43673;DHT22;41723;49.326;8.430;2022-08-11T01:04:51;23.90;59.90
43673;DHT22;41723;49.326;8.430;2022-08-11T01:29:12;23.70;60.80
43673;DHT22;41723;49.326;8.430;2022-08-11T01:41:45;23.60;61.60
43673;DHT22;41723;49.326;8.430;2022-08-11T01:44:50;23.50;61.80
43673;DHT22;41723;49.326;8.430;2022-08-11T01:47:27;23.60;61.50
43673;DHT22;41723;49.326;8.430;2022-08-11T01:52:59;23.50;61.80
43673;DHT22;41723;49.326;8.430;2022-08-11T01:58:30;23.40;61.90
43673;DHT22;41723;49.326;8.430;2022-08-11T02:01:05;23.40;62.00
43673;DHT22;41723;49.326;8.430;2022-08-11T02:03:38;23.30;62.10
43673;DHT22;41723;49.326;8.430;2022-08-11T02:09:12;23.30;62.60
43673;DHT22;41723;49.326;8.430;2022-08-11T02:11:40;23.20;62.50
43673;DHT22;41723;49.326;8.430;2022-08-11T02:22:05;23.00;62.70
43673;DHT22;41723;49.326;8.430;2022-08-11T02:25:17;23.10;62.90
43673;DHT22;41723;49.326;8.430;2022-08-11T02:27:42;23.00;63.00
43673;DHT22;41723;49.326;8.430;2022-08-11T02:30:13;22.90;63.20
43673;DHT22;41723;49.326;8.430;2022-08-11T02:32:47;22.80;63.80
43673;DHT22;41723;49.326;8.430;2022-08-11T02:35:41;22.80;64.20
43673;DHT22;41723;49.326;8.430;2022-08-11T02:38:28;22.80;64.30
43673;DHT22;41723;49.326;8.430;2022-08-11T02:41:05;22.80;64.50
43673;DHT22;41723;49.326;8.430;2022-08-11T02:46:31;22.60;64.80
43673;DHT22;41723;49.326;8.430;2022-08-11T02:57:19;22.30;65.50
43673;DHT22;41723;49.326;8.430;2022-08-11T02:59:50;22.30;65.70
43673;DHT22;41723;49.326;8.430;2022-08-11T03:10:24;22.10;66.20
43673;DHT22;41723;49.326;8.430;2022-08-11T03:12:54;22.00;66.40
43673;DHT22;41723;49.326;8.430;2022-08-11T03:15:42;22.00;66.50
43673;DHT22;41723;49.326;8.430;2022-08-11T03:21:10;21.90;66.70
43673;DHT22;41723;49.326;8.430;2022-08-11T03:26:23;21.90;66.70
43673;DHT22;41723;49.326;8.430;2022-08-11T03:31:36;21.60;67.30
43673;DHT22;41723;49.326;8.430;2022-08-11T03:34:06;21.60;67.40
43673;DHT22;41723;49.326;8.430;2022-08-11T03:44:54;21.60;67.80
43673;DHT22;41723;49.326;8.430;2022-08-11T03:47:31;21.60;67.60
43673;DHT22;41723;49.326;8.430;2022-08-11T04:00:44;21.20;67.90
43673;DHT22;41723;49.326;8.430;2022-08-11T04:03:21;21.10;68.00
43673;DHT22;41723;49.326;8.430;2022-08-11T04:40:02;20.30;70.00
43673;DHT22;41723;49.326;8.430;2022-08-11T04:48:08;20.40;69.70
43673;DHT22;41723;49.326;8.430;2022-08-11T04:56:47;20.30;70.60
43673;DHT22;41723;49.326;8.430;2022-08-11T05:03:30;20.30;70.80
43673;DHT22;41723;49.326;8.430;2022-08-11T05:13:01;20.30;70.70
43673;DHT22;41723;49.326;8.430;2022-08-11T05:15:48;20.50;70.80
43673;DHT22;41723;49.326;8.430;2022-08-11T05:18:34;20.50;70.70
43673;DHT22;41723;49.326;8.430;2022-08-11T05:21:20;20.40;70.70
43673;DHT22;41723;49.326;8.430;2022-08-11T05:24:12;20.20;71.00
43673;DHT22;41723;49.326;8.430;2022-08-11T05:27:00;20.10;71.40
43673;DHT22;41723;49.326;8.430;2022-08-11T05:29:47;20.30;71.10
43673;DHT22;41723;49.326;8.430;2022-08-11T05:32:38;20.30;71.30
43673;DHT22;41723;49.326;8.430;2022-08-11T05:35:25;20.40;71.50
43673;DHT22;41723;49.326;8.430;2022-08-11T05:37:52;20.60;71.20
43673;DHT22;41723;49.326;8.430;2022-08-11T05:40:38;20.60;70.80
43673;DHT22;41723;49.326;8.430;2022-08-11T05:43:28;20.50;71.00
43673;DHT22;41723;49.326;8.430;2022-08-11T05:46:12;20.50;71.50
43673;DHT22;41723;49.326;8.430;2022-08-11T05:48:56;20.70;71.50
43673;DHT22;41723;49.326;8.430;2022-08-11T05:51:41;20.80;71.20
43673;DHT22;41723;49.326;8.430;2022-08-11T05:54:25;20.70;70.80
43673;DHT22;41723;49.326;8.430;2022-08-11T05:57:17;20.70;71.50
43673;DHT22;41723;49.326;8.430;2022-08-11T05:59:43;20.70;71.50
43673;DHT22;41723;49.326;8.430;2022-08-11T06:02:10;20.70;71.30
43673;DHT22;41723;49.326;8.430;2022-08-11T06:04:36;20.70;71.40
43673;DHT22;41723;49.326;8.430;2022-08-11T06:07:03;20.60;71.50
43673;DHT22;41723;49.326;8.430;2022-08-11T06:12:09;20.90;71.70
43673;DHT22;41723;49.326;8.430;2022-08-11T06:14:41;21.00;71.40
43673;DHT22;41723;49.326;8.430;2022-08-11T06:17:07;21.10;71.00
43673;DHT22;41723;49.326;8.430;2022-08-11T06:19:39;21.30;71.00
43673;DHT22;41723;49.326;8.430;2022-08-11T06:22:06;21.50;70.80
43673;DHT22;41723;49.326;8.430;2022-08-11T06:24:33;21.70;70.20
43673;DHT22;41723;49.326;8.430;2022-08-11T06:26:59;21.80;70.60
43673;DHT22;41723;49.326;8.430;2022-08-11T06:29:25;21.80;69.60
43673;DHT22;41723;49.326;8.430;2022-08-11T06:31:56;21.80;69.80
43673;DHT22;41723;49.326;8.430;2022-08-11T06:36:59;21.90;69.40
43673;DHT22;41723;49.326;8.430;2022-08-11T06:39:38;21.90;69.80
43673;DHT22;41723;49.326;8.430;2022-08-11T06:42:10;22.00;69.90
43673;DHT22;41723;49.326;8.430;2022-08-11T06:44:42;22.10;69.60
43673;DHT22;41723;49.326;8.430;2022-08-11T06:47:09;22.40;69.50
43673;DHT22;41723;49.326;8.430;2022-08-11T06:49:37;22.40;68.80
43673;DHT22;41723;49.326;8.430;2022-08-11T06:52:35;22.50;69.00
43673;DHT22;41723;49.326;8.430;2022-08-11T06:55:12;22.80;68.90
43673;DHT22;41723;49.326;8.430;2022-08-11T06:57:40;23.00;68.20
43673;DHT22;41723;49.326;8.430;2022-08-11T07:00:27;23.10;68.20
43673;DHT22;41723;49.326;8.430;2022-08-11T07:13:51;23.60;67.80
43673;DHT22;41723;49.326;8.430;2022-08-11T07:16:38;23.80;67.90
43673;DHT22;41723;49.326;8.430;2022-08-11T07:19:06;23.80;67.50
43673;DHT22;41723;49.326;8.430;2022-08-11T07:21:50;23.80;67.20
43673;DHT22;41723;49.326;8.430;2022-08-11T07:27:27;24.00;67.50
43673;DHT22;41723;49.326;8.430;2022-08-11T07:30:12;24.10;67.40
43673;DHT22;41723;49.326;8.430;2022-08-11T07:32:51;24.30;67.30
43673;DHT22;41723;49.326;8.430;2022-08-11T07:35:23;24.30;67.10
43673;DHT22;41723;49.326;8.430;2022-08-11T07:37:54;24.40;67.90
43673;DHT22;41723;49.326;8.430;2022-08-11T07:40:24;24.40;67.40
43673;DHT22;41723;49.326;8.430;2022-08-11T07:42:51;24.50;67.70
43673;DHT22;41723;49.326;8.430;2022-08-11T07:45:17;24.60;67.90
43673;DHT22;41723;49.326;8.430;2022-08-11T07:48:02;24.60;67.20
43673;DHT22;41723;49.326;8.430;2022-08-11T07:50:46;24.70;66.70
43673;DHT22;41723;49.326;8.430;2022-08-11T07:53:32;24.80;66.80
43673;DHT22;41723;49.326;8.430;2022-08-11T07:55:59;24.90;65.90
43673;DHT22;41723;49.326;8.430;2022-08-11T07:58:25;25.00;64.70
43673;DHT22;41723;49.326;8.430;2022-08-11T08:01:10;25.10;64.20
43673;DHT22;41723;49.326;8.430;2022-08-11T08:03:55;25.10;64.30
43673;DHT22;41723;49.326;8.430;2022-08-11T08:06:41;25.20;63.90
43673;DHT22;41723;49.326;8.430;2022-08-11T08:09:25;25.30;63.80
43673;DHT22;41723;49.326;8.430;2022-08-11T08:12:09;25.40;63.80
43673;DHT22;41723;49.326;8.430;2022-08-11T08:14:55;25.40;63.60
43673;DHT22;41723;49.326;8.430;2022-08-11T08:17:40;25.50;63.20
43673;DHT22;41723;49.326;8.430;2022-08-11T08:20:23;25.50;63.80
43673;DHT22;41723;49.326;8.430;2022-08-11T08:22:50;25.60;63.30
43673;DHT22;41723;49.326;8.430;2022-08-11T08:25:24;25.70;62.90
43673;DHT22;41723;49.326;8.430;2022-08-11T08:27:50;25.70;62.70
43673;DHT22;41723;49.326;8.430;2022-08-11T08:30:16;25.80;62.90
43673;DHT22;41723;49.326;8.430;2022-08-11T08:33:00;25.90;62.90
43673;DHT22;41723;49.326;8.430;2022-08-11T08:35:27;26.00;62.90
43673;DHT22;41723;49.326;8.430;2022-08-11T08:37:55;26.00;63.00
43673;DHT22;41723;49.326;8.430;2022-08-11T08:40:21;26.00;62.40
43673;DHT22;41723;49.326;8.430;2022-08-11T08:42:48;26.10;62.50
43673;DHT22;41723;49.326;8.430;2022-08-11T08:45:16;26.10;62.00
43673;DHT22;41723;49.326;8.430;2022-08-11T08:47:47;26.20;62.90
43673;DHT22;41723;49.326;8.430;2022-08-11T08:50:15;26.20;62.70
43673;DHT22;41723;49.326;8.430;2022-08-11T08:52:51;26.40;62.90
43673;DHT22;41723;49.326;8.430;2022-08-11T08:55:18;26.40;61.20
43673;DHT22;41723;49.326;8.430;2022-08-11T08:57:44;26.40;62.10
43673;DHT22;41723;49.326;8.430;2022-08-11T09:00:10;26.40;61.70
43673;DHT22;41723;49.326;8.430;2022-08-11T09:02:38;26.50;61.80
43673;DHT22;41723;49.326;8.430;2022-08-11T09:05:04;26.50;61.20
43673;DHT22;41723;49.326;8.430;2022-08-11T09:07:34;26.50;61.30
43673;DHT22;41723;49.326;8.430;2022-08-11T09:10:00;26.60;60.80
43673;DHT22;41723;49.326;8.430;2022-08-11T09:12:27;26.60;60.60
43673;DHT22;41723;49.326;8.430;2022-08-11T09:14:53;26.60;60.90
43673;DHT22;41723;49.326;8.430;2022-08-11T09:17:27;26.70;60.90
43673;DHT22;41723;49.326;8.430;2022-08-11T09:19:54;26.70;61.20
43673;DHT22;41723;49.326;8.430;2022-08-11T09:22:29;26.80;60.90
43673;DHT22;41723;49.326;8.430;2022-08-11T09:25:13;26.90;61.40
43673;DHT22;41723;49.326;8.430;2022-08-11T09:27:58;26.90;60.90
43673;DHT22;41723;49.326;8.430;2022-08-11T09:30:24;27.00;60.30
43673;DHT22;41723;49.326;8.430;2022-08-11T09:32:51;27.00;60.80
43673;DHT22;41723;49.326;8.430;2022-08-11T09:35:20;27.10;60.50
43673;DHT22;41723;49.326;8.430;2022-08-11T09:37:46;27.20;61.10
43673;DHT22;41723;49.326;8.430;2022-08-11T09:40:30;27.10;59.80
43673;DHT22;41723;49.326;8.430;2022-08-11T09:42:58;27.10;60.50
43673;DHT22;41723;49.326;8.430;2022-08-11T09:45:43;27.10;59.20
43673;DHT22;41723;49.326;8.430;2022-08-11T09:48:10;27.20;60.10
43673;DHT22;41723;49.326;8.430;2022-08-11T09:50:36;27.30;58.70
43673;DHT22;41723;49.326;8.430;2022-08-11T09:53:03;27.30;59.10
43673;DHT22;41723;49.326;8.430;2022-08-11T09:55:31;27.40;58.60
43673;DHT22;41723;49.326;8.430;2022-08-11T09:57:57;27.50;57.70
43673;DHT22;41723;49.326;8.430;2022-08-11T10:00:42;27.50;58.60
43673;DHT22;41723;49.326;8.430;2022-08-11T10:03:10;27.50;58.10
43673;DHT22;41723;49.326;8.430;2022-08-11T10:05:36;27.60;59.20
43673;DHT22;41723;49.326;8.430;2022-08-11T10:08:21;27.60;57.70
43673;DHT22;41723;49.326;8.430;2022-08-11T10:10:51;27.80;57.20
43673;DHT22;41723;49.326;8.430;2022-08-11T10:13:18;27.90;56.00
43673;DHT22;41723;49.326;8.430;2022-08-11T10:15:46;27.80;56.60
43673;DHT22;41723;49.326;8.430;2022-08-11T10:18:19;27.80;55.90
43673;DHT22;41723;49.326;8.430;2022-08-11T10:24:00;27.80;55.00
43673;DHT22;41723;49.326;8.430;2022-08-11T10:26:46;28.00;55.10
43673;DHT22;41723;49.326;8.430;2022-08-11T10:29:31;28.10;55.00
43673;DHT22;41723;49.326;8.430;2022-08-11T10:32:25;28.20;55.80
43673;DHT22;41723;49.326;8.430;2022-08-11T10:35:09;28.10;55.70
43673;DHT22;41723;49.326;8.430;2022-08-11T10:37:37;28.20;55.20
43673;DHT22;41723;49.326;8.430;2022-08-11T10:40:04;28.20;54.00
43673;DHT22;41723;49.326;8.430;2022-08-11T10:42:31;28.30;54.60
43673;DHT22;41723;49.326;8.430;2022-08-11T10:45:15;28.40;54.10
43673;DHT22;41723;49.326;8.430;2022-08-11T10:48:00;28.50;54.80
43673;DHT22;41723;49.326;8.430;2022-08-11T10:50:26;28.60;55.20
43673;DHT22;41723;49.326;8.430;2022-08-11T10:53:11;28.70;54.00
43673;DHT22;41723;49.326;8.430;2022-08-11T10:55:56;28.70;54.20
43673;DHT22;41723;49.326;8.430;2022-08-11T10:58:41;28.80;55.00
43673;DHT22;41723;49.326;8.430;2022-08-11T11:03:47;29.10;53.70
43673;DHT22;41723;49.326;8.430;2022-08-11T11:06:24;29.10;53.30
43673;DHT22;41723;49.326;8.430;2022-08-11T11:08:54;29.20;53.80
43673;DHT22;41723;49.326;8.430;2022-08-11T11:11:22;29.30;53.00
43673;DHT22;41723;49.326;8.430;2022-08-11T11:13:49;29.40;53.30
43673;DHT22;41723;49.326;8.430;2022-08-11T11:16:37;29.50;52.40
43673;DHT22;41723;49.326;8.430;2022-08-11T11:19:15;29.60;52.90
43673;DHT22;41723;49.326;8.430;2022-08-11T11:21:46;29.60;53.50
43673;DHT22;41723;49.326;8.430;2022-08-11T11:24:15;29.70;54.10
43673;DHT22;41723;49.326;8.430;2022-08-11T11:29:27;30.00;53.90
43673;DHT22;41723;49.326;8.430;2022-08-11T11:34:45;30.20;53.50
43673;DHT22;41723;49.326;8.430;2022-08-11T11:37:15;30.30;53.60
43673;DHT22;41723;49.326;8.430;2022-08-11T11:39:41;30.40;52.70
43673;DHT22;41723;49.326;8.430;2022-08-11T11:42:08;30.40;53.20
43673;DHT22;41723;49.326;8.430;2022-08-11T11:44:38;30.60;53.20
43673;DHT22;41723;49.326;8.430;2022-08-11T11:47:04;30.40;52.30
43673;DHT22;41723;49.326;8.430;2022-08-11T11:49:30;30.50;53.20
43673;DHT22;41723;49.326;8.430;2022-08-11T11:52:03;30.70;52.50
43673;DHT22;41723;49.326;8.430;2022-08-11T11:54:30;30.80;51.80
43673;DHT22;41723;49.326;8.430;2022-08-11T11:57:00;30.80;52.60
43673;DHT22;41723;49.326;8.430;2022-08-11T11:59:47;31.00;52.30
43673;DHT22;41723;49.326;8.430;2022-08-11T12:02:45;31.10;50.80
43673;DHT22;41723;49.326;8.430;2022-08-11T12:05:11;31.10;50.30
43673;DHT22;41723;49.326;8.430;2022-08-11T12:07:39;30.90;52.00
43673;DHT22;41723;49.326;8.430;2022-08-11T12:10:23;31.00;50.70
43673;DHT22;41723;49.326;8.430;2022-08-11T12:12:49;31.30;51.10
43673;DHT22;41723;49.326;8.430;2022-08-11T12:15:34;31.30;49.70
43673;DHT22;41723;49.326;8.430;2022-08-11T12:17:59;31.50;49.60
43673;DHT22;41723;49.326;8.430;2022-08-11T12:20:26;31.60;49.90
43673;DHT22;41723;49.326;8.430;2022-08-11T12:22:52;31.60;49.30
43673;DHT22;41723;49.326;8.430;2022-08-11T12:25:57;31.50;49.60
43673;DHT22;41723;49.326;8.430;2022-08-11T12:28:42;31.50;49.30
43673;DHT22;41723;49.326;8.430;2022-08-11T12:31:08;31.40;49.10
43673;DHT22;41723;49.326;8.430;2022-08-11T12:33:35;31.50;49.60
43673;DHT22;41723;49.326;8.430;2022-08-11T12:36:01;31.70;48.40
43673;DHT22;41723;49.326;8.430;2022-08-11T12:38:27;31.70;48.60
43673;DHT22;41723;49.326;8.430;2022-08-11T12:40:53;31.70;48.50
43673;DHT22;41723;49.326;8.430;2022-08-11T12:43:37;31.60;48.90
43673;DHT22;41723;49.326;8.430;2022-08-11T12:46:30;31.20;50.20
43673;DHT22;41723;49.326;8.430;2022-08-11T12:48:57;31.40;49.10
43673;DHT22;41723;49.326;8.430;2022-08-11T12:51:45;31.50;49.70
43673;DHT22;41723;49.326;8.430;2022-08-11T12:54:28;31.60;49.20
43673;DHT22;41723;49.326;8.430;2022-08-11T12:57:00;31.70;48.80
43673;DHT22;41723;49.326;8.430;2022-08-11T12:59:45;31.70;48.50
43673;DHT22;41723;49.326;8.430;2022-08-11T13:02:29;31.70;48.50
43673;DHT22;41723;49.326;8.430;2022-08-11T13:05:14;31.70;48.60
43673;DHT22;41723;49.326;8.430;2022-08-11T13:07:43;31.80;49.10
43673;DHT22;41723;49.326;8.430;2022-08-11T13:10:10;31.90;49.00
43673;DHT22;41723;49.326;8.430;2022-08-11T13:12:37;32.00;49.30
43673;DHT22;41723;49.326;8.430;2022-08-11T13:15:19;32.00;48.50
43673;DHT22;41723;49.326;8.430;2022-08-11T13:17:46;31.90;48.50
43673;DHT22;41723;49.326;8.430;2022-08-11T13:20:14;32.00;49.80
43673;DHT22;41723;49.326;8.430;2022-08-11T13:22:41;32.00;49.30
43673;DHT22;41723;49.326;8.430;2022-08-11T13:25:10;32.00;48.60
43673;DHT22;41723;49.326;8.430;2022-08-11T13:27:36;32.00;48.90
43673;DHT22;41723;49.326;8.430;2022-08-11T13:30:02;32.00;50.20
43673;DHT22;41723;49.326;8.430;2022-08-11T13:32:47;32.00;48.40
43673;DHT22;41723;49.326;8.430;2022-08-11T13:35:20;32.00;48.40
43673;DHT22;41723;49.326;8.430;2022-08-11T13:37:46;32.00;48.60
43673;DHT22;41723;49.326;8.430;2022-08-11T13:40:13;32.00;48.50
43673;DHT22;41723;49.326;8.430;2022-08-11T13:42:40;31.90;48.20
43673;DHT22;41723;49.326;8.430;2022-08-11T13:45:08;31.90;48.10
43673;DHT22;41723;49.326;8.430;2022-08-11T13:47:33;31.90;48.80
43673;DHT22;41723;49.326;8.430;2022-08-11T13:49:59;31.80;48.40
43673;DHT22;41723;49.326;8.430;2022-08-11T13:52:25;31.80;48.30
43673;DHT22;41723;49.326;8.430;2022-08-11T13:54:52;31.80;48.60
43673;DHT22;41723;49.326;8.430;2022-08-11T13:57:18;31.70;47.80
43673;DHT22;41723;49.326;8.430;2022-08-11T13:59:45;31.70;48.90
43673;DHT22;41723;49.326;8.430;2022-08-11T14:02:12;31.70;49.20
43673;DHT22;41723;49.326;8.430;2022-08-11T14:04:40;31.70;48.50
43673;DHT22;41723;49.326;8.430;2022-08-11T14:07:07;31.70;48.60
43673;DHT22;41723;49.326;8.430;2022-08-11T14:09:35;31.70;48.00
43673;DHT22;41723;49.326;8.430;2022-08-11T14:12:02;31.70;48.20
43673;DHT22;41723;49.326;8.430;2022-08-11T14:14:51;31.70;48.40
43673;DHT22;41723;49.326;8.430;2022-08-11T14:17:21;31.70;48.90
43673;DHT22;41723;49.326;8.430;2022-08-11T14:19:48;31.70;48.90
43673;DHT22;41723;49.326;8.430;2022-08-11T14:22:15;31.70;48.10
43673;DHT22;41723;49.326;8.430;2022-08-11T14:24:41;31.40;47.90
43673;DHT22;41723;49.326;8.430;2022-08-11T14:27:11;31.30;48.20
43673;DHT22;41723;49.326;8.430;2022-08-11T14:29:37;31.40;48.70
43673;DHT22;41723;49.326;8.430;2022-08-11T14:32:07;31.50;48.80
43673;DHT22;41723;49.326;8.430;2022-08-11T14:34:34;31.40;48.00
43673;DHT22;41723;49.326;8.430;2022-08-11T14:37:01;31.40;48.30
43673;DHT22;41723;49.326;8.430;2022-08-11T14:39:29;31.50;48.50
43673;DHT22;41723;49.326;8.430;2022-08-11T14:41:56;31.50;48.50
43673;DHT22;41723;49.326;8.430;2022-08-11T14:44:42;31.50;48.90
43673;DHT22;41723;49.326;8.430;2022-08-11T14:47:28;31.50;49.40
43673;DHT22;41723;49.326;8.430;2022-08-11T14:49:54;31.50;48.50
43673;DHT22;41723;49.326;8.430;2022-08-11T14:52:22;31.40;48.80
43673;DHT22;41723;49.326;8.430;2022-08-11T14:54:50;31.30;48.70
43673;DHT22;41723;49.326;8.430;2022-08-11T14:57:36;31.30;48.20
43673;DHT22;41723;49.326;8.430;2022-08-11T15:00:03;31.30;48.50
43673;DHT22;41723;49.326;8.430;2022-08-11T15:02:29;31.30;48.20
43673;DHT22;41723;49.326;8.430;2022-08-11T15:05:13;31.30;48.50
43673;DHT22;41723;49.326;8.430;2022-08-11T15:07:39;31.20;48.40
43673;DHT22;41723;49.326;8.430;2022-08-11T15:10:06;31.30;48.50
43673;DHT22;41723;49.326;8.430;2022-08-11T15:12:32;31.20;49.20
43673;DHT22;41723;49.326;8.430;2022-08-11T15:14:58;31.30;48.80
43673;DHT22;41723;49.326;8.430;2022-08-11T15:17:43;31.20;48.80
43673;DHT22;41723;49.326;8.430;2022-08-11T15:20:10;31.20;49.40
43673;DHT22;41723;49.326;8.430;2022-08-11T15:22:55;31.20;48.50
43673;DHT22;41723;49.326;8.430;2022-08-11T15:25:42;31.20;48.10
43673;DHT22;41723;49.326;8.430;2022-08-11T15:28:10;31.10;48.10
43673;DHT22;41723;49.326;8.430;2022-08-11T15:30:56;31.10;48.30
43673;DHT22;41723;49.326;8.430;2022-08-11T15:33:42;31.10;47.80
43673;DHT22;41723;49.326;8.430;2022-08-11T15:36:28;31.00;48.10
43673;DHT22;41723;49.326;8.430;2022-08-11T15:39:18;30.90;48.60
43673;DHT22;41723;49.326;8.430;2022-08-11T15:41:45;30.90;47.90
43673;DHT22;41723;49.326;8.430;2022-08-11T15:44:30;30.90;48.30
43673;DHT22;41723;49.326;8.430;2022-08-11T15:47:25;30.90;47.90
43673;DHT22;41723;49.326;8.430;2022-08-11T15:49:52;30.80;48.00
43673;DHT22;41723;49.326;8.430;2022-08-11T15:52:20;30.70;47.70
43673;DHT22;41723;49.326;8.430;2022-08-11T15:54:46;30.70;48.30
43673;DHT22;41723;49.326;8.430;2022-08-11T15:57:13;30.70;47.70
43673;DHT22;41723;49.326;8.430;2022-08-11T16:00:01;30.70;48.20
43673;DHT22;41723;49.326;8.430;2022-08-11T16:02:47;30.60;47.70
43673;DHT22;41723;49.326;8.430;2022-08-11T16:05:31;30.60;47.90
43673;DHT22;41723;49.326;8.430;2022-08-11T16:07:58;30.50;48.40
43673;DHT22;41723;49.326;8.430;2022-08-11T16:10:24;30.60;48.20
43673;DHT22;41723;49.326;8.430;2022-08-11T16:12:51;30.50;48.30
43673;DHT22;41723;49.326;8.430;2022-08-11T16:15:46;30.50;48.60
43673;DHT22;41723;49.326;8.430;2022-08-11T16:18:50;30.50;48.00
43673;DHT22;41723;49.326;8.430;2022-08-11T16:21:22;30.40;48.20
43673;DHT22;41723;49.326;8.430;2022-08-11T16:23:49;30.40;48.00
43673;DHT22;41723;49.326;8.430;2022-08-11T16:26:17;30.30;47.60
43673;DHT22;41723;49.326;8.430;2022-08-11T16:28:44;30.30;47.40
43673;DHT22;41723;49.326;8.430;2022-08-11T16:31:10;30.30;48.40
43673;DHT22;41723;49.326;8.430;2022-08-11T16:33:40;30.30;49.40
43673;DHT22;41723;49.326;8.430;2022-08-11T16:36:08;30.30;48.50
43673;DHT22;41723;49.326;8.430;2022-08-11T16:38:53;30.20;48.40
43673;DHT22;41723;49.326;8.430;2022-08-11T16:41:20;30.20;48.30
43673;DHT22;41723;49.326;8.430;2022-08-11T16:44:05;30.20;48.60
43673;DHT22;41723;49.326;8.430;2022-08-11T16:46:50;30.20;48.80
43673;DHT22;41723;49.326;8.430;2022-08-11T16:49:32;30.20;48.60
43673;DHT22;41723;49.326;8.430;2022-08-11T16:51:58;30.10;48.60
43673;DHT22;41723;49.326;8.430;2022-08-11T16:54:37;30.10;48.70
43673;DHT22;41723;49.326;8.430;2022-08-11T16:57:08;30.10;49.20
43673;DHT22;41723;49.326;8.430;2022-08-11T16:59:53;30.00;48.20
43673;DHT22;41723;49.326;8.430;2022-08-11T17:02:22;30.00;48.60
43673;DHT22;41723;49.326;8.430;2022-08-11T17:05:09;30.00;49.50
43673;DHT22;41723;49.326;8.430;2022-08-11T17:07:54;29.90;49.00
43673;DHT22;41723;49.326;8.430;2022-08-11T17:10:43;29.90;49.10
43673;DHT22;41723;49.326;8.430;2022-08-11T17:13:30;29.80;48.60
43673;DHT22;41723;49.326;8.430;2022-08-11T17:15:57;29.80;49.10
43673;DHT22;41723;49.326;8.430;2022-08-11T17:23:46;29.70;50.60
43673;DHT22;41723;49.326;8.430;2022-08-11T17:29:31;29.70;49.00
43673;DHT22;41723;49.326;8.430;2022-08-11T17:31:58;29.60;49.00
43673;DHT22;41723;49.326;8.430;2022-08-11T17:34:42;29.60;48.80
43673;DHT22;41723;49.326;8.430;2022-08-11T17:37:28;29.60;49.30
43673;DHT22;41723;49.326;8.430;2022-08-11T17:39:58;29.60;48.60
43673;DHT22;41723;49.326;8.430;2022-08-11T17:42:25;29.50;49.60
43673;DHT22;41723;49.326;8.430;2022-08-11T17:45:10;29.50;50.20
43673;DHT22;41723;49.326;8.430;2022-08-11T17:47:54;29.50;49.70
43673;DHT22;41723;49.326;8.430;2022-08-11T17:50:39;29.50;49.30
43673;DHT22;41723;49.326;8.430;2022-08-11T17:53:05;29.40;50.20
43673;DHT22;41723;49.326;8.430;2022-08-11T17:55:50;29.40;49.80
43673;DHT22;41723;49.326;8.430;2022-08-11T17:58:35;29.40;50.80
43673;DHT22;41723;49.326;8.430;2022-08-11T18:01:21;29.30;50.00
43673;DHT22;41723;49.326;8.430;2022-08-11T18:03:48;29.20;50.50
43673;DHT22;41723;49.326;8.430;2022-08-11T18:06:15;29.30;50.20
43673;DHT22;41723;49.326;8.430;2022-08-11T18:08:42;29.20;50.50
43673;DHT22;41723;49.326;8.430;2022-08-11T18:11:28;29.20;49.50
43673;DHT22;41723;49.326;8.430;2022-08-11T18:14:13;29.20;50.80
43673;DHT22;41723;49.326;8.430;2022-08-11T18:17:00;29.10;50.20
43673;DHT22;41723;49.326;8.430;2022-08-11T18:19:44;29.10;50.60
43673;DHT22;41723;49.326;8.430;2022-08-11T18:22:29;29.00;50.50
43673;DHT22;41723;49.326;8.430;2022-08-11T18:25:20;29.00;50.50
43673;DHT22;41723;49.326;8.430;2022-08-11T18:28:05;29.00;49.60
43673;DHT22;41723;49.326;8.430;2022-08-11T18:30:50;28.90;49.50
43673;DHT22;41723;49.326;8.430;2022-08-11T18:33:36;28.90;49.70
43673;DHT22;41723;49.326;8.430;2022-08-11T18:36:23;28.90;49.80
43673;DHT22;41723;49.326;8.430;2022-08-11T18:39:11;28.80;50.50
43673;DHT22;41723;49.326;8.430;2022-08-11T18:41:57;28.80;50.30
43673;DHT22;41723;49.326;8.430;2022-08-11T18:44:41;28.70;50.90
43673;DHT22;41723;49.326;8.430;2022-08-11T18:47:26;28.60;51.10
43673;DHT22;41723;49.326;8.430;2022-08-11T18:50:11;28.60;51.40
43673;DHT22;41723;49.326;8.430;2022-08-11T18:52:55;28.50;50.90
43673;DHT22;41723;49.326;8.430;2022-08-11T18:55:41;28.40;50.20
43673;DHT22;41723;49.326;8.430;2022-08-11T18:58:29;28.40;50.90
43673;DHT22;41723;49.326;8.430;2022-08-11T19:01:15;28.30;51.50
43673;DHT22;41723;49.326;8.430;2022-08-11T19:04:01;28.30;51.90
43673;DHT22;41723;49.326;8.430;2022-08-11T19:06:46;28.30;51.80
43673;DHT22;41723;49.326;8.430;2022-08-11T19:09:31;28.20;52.10
43673;DHT22;41723;49.326;8.430;2022-08-11T19:12:17;28.10;51.70
43673;DHT22;41723;49.326;8.430;2022-08-11T19:15:02;28.10;50.80
43673;DHT22;41723;49.326;8.430;2022-08-11T19:17:47;28.10;51.80
43673;DHT22;41723;49.326;8.430;2022-08-11T19:20:31;28.00;52.50
43673;DHT22;41723;49.326;8.430;2022-08-11T19:23:18;28.00;50.70
43673;DHT22;41723;49.326;8.430;2022-08-11T19:26:03;27.90;51.10
43673;DHT22;41723;49.326;8.430;2022-08-11T19:28:49;27.80;51.10
43673;DHT22;41723;49.326;8.430;2022-08-11T19:31:34;27.70;51.40
43673;DHT22;41723;49.326;8.430;2022-08-11T19:34:19;27.60;51.40
43673;DHT22;41723;49.326;8.430;2022-08-11T19:37:05;27.60;51.70
43673;DHT22;41723;49.326;8.430;2022-08-11T19:39:51;27.50;52.00
43673;DHT22;41723;49.326;8.430;2022-08-11T19:42:35;27.40;52.30
43673;DHT22;41723;49.326;8.430;2022-08-11T19:45:19;27.30;53.00
43673;DHT22;41723;49.326;8.430;2022-08-11T19:48:04;27.30;52.80